DLH61K EHAM-EDDH
Flight info
| Callsign | DLH61K |
|---|---|
| Flight time | 0h 37m |
| Altitude | 31000 |
| Route | ANDIK M105 RIBSO RIBSO7A |
| Aircraft | A320/M-SDE3FGHIRWY/LB1 |
Departure
| Time | 2026-04-30 18:05 |
|---|---|
| Airport | Amsterdam Airport Schiphol (EHAM) |
Arrival
| Time | 2026-04-30 18:42 |
|---|---|
| Airport | Hamburg Helmut Schmidt Airport (EDDH) |
| Time | Latitude | Longitude | Altitude | Speed | Heading |
|---|---|---|---|---|---|
| 2026-04-30 17:39 | 52.30410 | 4.76362 | -2 ft | 0 kts | 237° |
| 2026-04-30 17:52 | 52.30413 | 4.76371 | -2 ft | 4 kts | 237° |
| 2026-04-30 17:53 | 52.30445 | 4.76420 | -2 ft | 0 kts | 164° |
| 2026-04-30 17:56 | 52.30434 | 4.76433 | -2 ft | 2 kts | 143° |
| 2026-04-30 17:57 | 52.30338 | 4.76619 | -3 ft | 11 kts | 65° |
| 2026-04-30 17:58 | 52.30390 | 4.77019 | -7 ft | 16 kts | 58° |
| 2026-04-30 17:59 | 52.30680 | 4.77590 | -3 ft | 18 kts | 2° |
| 2026-04-30 18:00 | 52.31175 | 4.77637 | -4 ft | 19 kts | 2° |
| 2026-04-30 18:00 | 52.31542 | 4.77512 | -3 ft | 18 kts | 313° |
| 2026-04-30 18:01 | 52.31571 | 4.77116 | -7 ft | 17 kts | 263° |
| 2026-04-30 18:02 | 52.31555 | 4.76613 | -3 ft | 12 kts | 266° |
| 2026-04-30 18:02 | 52.31537 | 4.76090 | 1 ft | 12 kts | 268° |
| 2026-04-30 18:03 | 52.31719 | 4.76310 | -3 ft | 13 kts | 72° |
| 2026-04-30 18:04 | 52.31729 | 4.76487 | -3 ft | 46 kts | 86° |
| 2026-04-30 18:05 | 52.32046 | 4.82511 | 1338 ft | 165 kts | 84° |
| 2026-04-30 18:06 | 52.33046 | 4.92117 | 3163 ft | 255 kts | 70° |
| 2026-04-30 18:07 | 52.37476 | 5.01755 | 6846 ft | 269 kts | 55° |
| 2026-04-30 18:08 | 52.40889 | 5.09192 | 9326 ft | 276 kts | 60° |
| 2026-04-30 18:09 | 52.48138 | 5.15737 | 11164 ft | 352 kts | 19° |
| 2026-04-30 18:10 | 52.54603 | 5.26839 | 13725 ft | 352 kts | 65° |
| 2026-04-30 18:11 | 52.59236 | 5.41396 | 16180 ft | 366 kts | 65° |
| 2026-04-30 18:11 | 52.62823 | 5.52678 | 17974 ft | 376 kts | 65° |
| 2026-04-30 18:12 | 52.67669 | 5.62875 | 19581 ft | 397 kts | 34° |
| 2026-04-30 18:13 | 52.72476 | 5.67485 | 20654 ft | 403 kts | 33° |
| 2026-04-30 18:13 | 52.78971 | 5.73745 | 21995 ft | 410 kts | 33° |
| 2026-04-30 18:14 | 52.83692 | 5.81234 | 23063 ft | 407 kts | 64° |
| 2026-04-30 18:15 | 52.87481 | 5.93954 | 24299 ft | 415 kts | 65° |
| 2026-04-30 18:15 | 52.91302 | 6.06950 | 25353 ft | 421 kts | 65° |
| 2026-04-30 18:16 | 52.93893 | 6.15721 | 26035 ft | 426 kts | 65° |
| 2026-04-30 18:16 | 52.96500 | 6.24587 | 26690 ft | 429 kts | 65° |
| 2026-04-30 18:17 | 52.97786 | 6.28985 | 27013 ft | 431 kts | 65° |
| 2026-04-30 18:17 | 52.99096 | 6.33478 | 27324 ft | 433 kts | 65° |
| 2026-04-30 18:17 | 53.01726 | 6.42536 | 27932 ft | 437 kts | 65° |
| 2026-04-30 18:18 | 53.03046 | 6.47085 | 28221 ft | 438 kts | 65° |
| 2026-04-30 18:18 | 53.04371 | 6.51654 | 28505 ft | 440 kts | 65° |
| 2026-04-30 18:18 | 53.05701 | 6.56248 | 28787 ft | 442 kts | 65° |
| 2026-04-30 18:18 | 53.07035 | 6.60870 | 29039 ft | 444 kts | 65° |
| 2026-04-30 18:19 | 53.08368 | 6.65499 | 29288 ft | 446 kts | 65° |
| 2026-04-30 18:19 | 53.09710 | 6.70164 | 29538 ft | 447 kts | 65° |
| 2026-04-30 18:19 | 53.11051 | 6.74831 | 29764 ft | 448 kts | 64° |
| 2026-04-30 18:19 | 53.12392 | 6.79508 | 30116 ft | 447 kts | 64° |
| 2026-04-30 18:20 | 53.13728 | 6.84186 | 30467 ft | 446 kts | 64° |
| 2026-04-30 18:20 | 53.15053 | 6.88845 | 30751 ft | 446 kts | 64° |
| 2026-04-30 18:20 | 53.16381 | 6.93525 | 31029 ft | 445 kts | 64° |
| 2026-04-30 18:20 | 53.17703 | 6.98187 | 31294 ft | 445 kts | 64° |
| 2026-04-30 18:21 | 53.19021 | 7.02841 | 31399 ft | 443 kts | 64° |
| 2026-04-30 18:21 | 53.21641 | 7.12108 | 31409 ft | 441 kts | 64° |
| 2026-04-30 18:22 | 53.24246 | 7.21366 | 31410 ft | 441 kts | 64° |
| 2026-04-30 18:22 | 53.28130 | 7.35224 | 31413 ft | 441 kts | 64° |
| 2026-04-30 18:23 | 53.30719 | 7.44524 | 31157 ft | 442 kts | 64° |
| 2026-04-30 18:23 | 53.32008 | 7.49188 | 30912 ft | 442 kts | 64° |
| 2026-04-30 18:23 | 53.33293 | 7.53850 | 30669 ft | 443 kts | 64° |
| 2026-04-30 18:24 | 53.35885 | 7.63219 | 30144 ft | 444 kts | 64° |
| 2026-04-30 18:24 | 53.37183 | 7.67905 | 29871 ft | 444 kts | 64° |
| 2026-04-30 18:24 | 53.38478 | 7.72610 | 29592 ft | 445 kts | 65° |
| 2026-04-30 18:25 | 53.39772 | 7.77326 | 29314 ft | 446 kts | 65° |
| 2026-04-30 18:25 | 53.42362 | 7.86793 | 28766 ft | 447 kts | 65° |
| 2026-04-30 18:25 | 53.43637 | 7.91467 | 28494 ft | 435 kts | 65° |
| 2026-04-30 18:26 | 53.46079 | 8.00455 | 27963 ft | 421 kts | 65° |
| 2026-04-30 18:26 | 53.47311 | 8.05003 | 27704 ft | 434 kts | 65° |
| 2026-04-30 18:26 | 53.48565 | 8.09637 | 27438 ft | 436 kts | 65° |
| 2026-04-30 18:27 | 53.51048 | 8.18837 | 26251 ft | 428 kts | 65° |
| 2026-04-30 18:27 | 53.52265 | 8.23374 | 25612 ft | 424 kts | 65° |
| 2026-04-30 18:28 | 53.54661 | 8.32329 | 24349 ft | 417 kts | 65° |
| 2026-04-30 18:28 | 53.55844 | 8.36758 | 23681 ft | 414 kts | 65° |
| 2026-04-30 18:28 | 53.58160 | 8.45433 | 22509 ft | 404 kts | 65° |
| 2026-04-30 18:29 | 53.59303 | 8.49719 | 21962 ft | 399 kts | 65° |
| 2026-04-30 18:29 | 53.62634 | 8.62291 | 20552 ft | 383 kts | 66° |
| 2026-04-30 18:30 | 53.64396 | 8.68962 | 20170 ft | 365 kts | 66° |
| 2026-04-30 18:30 | 53.66414 | 8.76636 | 19004 ft | 356 kts | 66° |
| 2026-04-30 18:31 | 53.67426 | 8.80486 | 18345 ft | 353 kts | 66° |
| 2026-04-30 18:31 | 53.69389 | 8.87989 | 17433 ft | 350 kts | 67° |
| 2026-04-30 18:32 | 53.71334 | 8.95458 | 16534 ft | 346 kts | 67° |
| 2026-04-30 18:32 | 53.72299 | 8.99164 | 16070 ft | 343 kts | 67° |
| 2026-04-30 18:32 | 53.74043 | 9.06625 | 15162 ft | 340 kts | 81° |
| 2026-04-30 18:33 | 53.74004 | 9.10562 | 14764 ft | 336 kts | 102° |
| 2026-04-30 18:33 | 53.72181 | 9.17784 | 13718 ft | 330 kts | 114° |
| 2026-04-30 18:33 | 53.71187 | 9.21262 | 12810 ft | 328 kts | 114° |
| 2026-04-30 18:34 | 53.70202 | 9.24707 | 11939 ft | 324 kts | 114° |
| 2026-04-30 18:34 | 53.68853 | 9.31784 | 10257 ft | 315 kts | 95° |
| 2026-04-30 18:34 | 53.68659 | 9.35446 | 9322 ft | 312 kts | 94° |
| 2026-04-30 18:35 | 53.68371 | 9.39042 | 8463 ft | 308 kts | 107° |
| 2026-04-30 18:35 | 53.67370 | 9.42103 | 7802 ft | 308 kts | 130° |
| 2026-04-30 18:35 | 53.65783 | 9.44518 | 7146 ft | 307 kts | 139° |
| 2026-04-30 18:36 | 53.62539 | 9.48862 | 6086 ft | 293 kts | 139° |
| 2026-04-30 18:36 | 53.60955 | 9.50989 | 5450 ft | 290 kts | 139° |
| 2026-04-30 18:36 | 53.57850 | 9.55213 | 4133 ft | 285 kts | 139° |
| 2026-04-30 18:37 | 53.56329 | 9.57329 | 3468 ft | 283 kts | 139° |
| 2026-04-30 18:37 | 53.54834 | 9.59425 | 3083 ft | 271 kts | 139° |
| 2026-04-30 18:37 | 53.53439 | 9.61372 | 2993 ft | 249 kts | 139° |
| 2026-04-30 18:37 | 53.52166 | 9.63146 | 3005 ft | 228 kts | 139° |
| 2026-04-30 18:38 | 53.51008 | 9.64906 | 3007 ft | 223 kts | 126° |
| 2026-04-30 18:38 | 53.50458 | 9.67279 | 3020 ft | 221 kts | 94° |
| 2026-04-30 18:38 | 53.50497 | 9.69825 | 3016 ft | 221 kts | 85° |
| 2026-04-30 18:38 | 53.50649 | 9.72401 | 3011 ft | 222 kts | 82° |
| 2026-04-30 18:39 | 53.51154 | 9.74829 | 3010 ft | 223 kts | 58° |
| 2026-04-30 18:39 | 53.52124 | 9.76869 | 2984 ft | 225 kts | 51° |
| 2026-04-30 18:39 | 53.53132 | 9.78876 | 2757 ft | 224 kts | 51° |
| 2026-04-30 18:39 | 53.54125 | 9.80863 | 2471 ft | 221 kts | 51° |
| 2026-04-30 18:40 | 53.55104 | 9.82829 | 2176 ft | 216 kts | 51° |
| 2026-04-30 18:40 | 53.56029 | 9.84688 | 1883 ft | 200 kts | 51° |
| 2026-04-30 18:40 | 53.56903 | 9.86446 | 1644 ft | 189 kts | 51° |
| 2026-04-30 18:40 | 53.57701 | 9.88050 | 1394 ft | 170 kts | 51° |
| 2026-04-30 18:41 | 53.58423 | 9.89504 | 1176 ft | 153 kts | 52° |
| 2026-04-30 18:41 | 53.59079 | 9.90827 | 962 ft | 142 kts | 52° |
| 2026-04-30 18:41 | 53.59696 | 9.92090 | 724 ft | 138 kts | 51° |
| 2026-04-30 18:41 | 53.60301 | 9.93332 | 570 ft | 137 kts | 51° |
| 2026-04-30 18:42 | 53.60918 | 9.94551 | 405 ft | 136 kts | 51° |
| 2026-04-30 18:42 | 53.62150 | 9.97053 | 50 ft | 131 kts | 50° |
| 2026-04-30 18:42 | 53.62546 | 9.97849 | 47 ft | 39 kts | 49° |
| 2026-04-30 18:45 | 53.62840 | 9.98859 | 50 ft | 20 kts | 51° |
| 2026-04-30 18:45 | 53.62919 | 9.99017 | 50 ft | 10 kts | 50° |
| 2026-04-30 18:45 | 53.62969 | 9.99117 | 50 ft | 12 kts | 50° |
| 2026-04-30 18:46 | 53.63027 | 9.99234 | 50 ft | 14 kts | 50° |
| 2026-04-30 18:46 | 53.63059 | 9.99305 | 50 ft | 5 kts | 55° |
| 2026-04-30 18:46 | 53.63081 | 9.99358 | 50 ft | 5 kts | 55° |
| 2026-04-30 18:46 | 53.63099 | 9.99402 | 50 ft | 4 kts | 55° |
| 2026-04-30 18:47 | 53.63132 | 9.99480 | 50 ft | 14 kts | 54° |
| 2026-04-30 18:47 | 53.63195 | 9.99617 | 50 ft | 14 kts | 51° |
| 2026-04-30 18:47 | 53.63208 | 9.99644 | 50 ft | 1 kts | 51° |
| 2026-04-30 18:47 | 53.63211 | 9.99650 | 50 ft | 3 kts | 51° |
| 2026-04-30 18:48 | 53.63225 | 9.99698 | 50 ft | 4 kts | 77° |
| 2026-04-30 18:48 | 53.63222 | 9.99741 | 50 ft | 7 kts | 108° |
| 2026-04-30 18:48 | 53.63172 | 9.99805 | 50 ft | 7 kts | 153° |
| 2026-04-30 18:48 | 53.63130 | 9.99842 | 50 ft | 6 kts | 152° |
| 2026-04-30 18:49 | 53.63094 | 9.99873 | 50 ft | 5 kts | 152° |
| 2026-04-30 18:49 | 53.63066 | 9.99898 | 50 ft | 4 kts | 152° |
| 2026-04-30 18:49 | 53.63042 | 9.99920 | 50 ft | 7 kts | 152° |
| 2026-04-30 18:49 | 53.62972 | 9.99980 | 50 ft | 11 kts | 153° |
| 2026-04-30 18:50 | 53.62905 | 10.00032 | 50 ft | 10 kts | 162° |
| 2026-04-30 18:50 | 53.62848 | 10.00068 | 48 ft | 8 kts | 153° |
| 2026-04-30 18:50 | 53.62802 | 10.00108 | 50 ft | 7 kts | 153° |
| 2026-04-30 18:50 | 53.62779 | 10.00137 | 49 ft | 2 kts | 113° |
| 2026-04-30 18:51 | 53.62784 | 10.00164 | 50 ft | 3 kts | 73° |
| 2026-04-30 18:51 | 53.62792 | 10.00193 | 50 ft | 2 kts | 63° |
| 2026-04-30 18:51 | 53.62799 | 10.00215 | 50 ft | 4 kts | 63° |
| 2026-04-30 18:51 | 53.62801 | 10.00221 | 48 ft | 1 kts | 63° |
| 2026-04-30 18:52 | 53.62804 | 10.00232 | 49 ft | 2 kts | 63° |
| 2026-04-30 18:52 | 53.62806 | 10.00239 | 50 ft | 0 kts | 63° |
| 2026-04-30 18:52 | 53.62806 | 10.00240 | 50 ft | 0 kts | 63° |